sensor_id;sensor_type;location;lat;lon;timestamp;pressure;altitude;pressure_sealevel;temperature;humidity
1832;BME280;1680;48.106;11.708;2023-03-13T00:00:58;95255.41;;;6.08;100.00
1832;BME280;1680;48.106;11.708;2023-03-13T00:03:26;95255.63;;;6.00;100.00
1832;BME280;1680;48.106;11.708;2023-03-13T00:05:57;95255.22;;;5.90;100.00
1832;BME280;1680;48.106;11.708;2023-03-13T00:08:28;95242.41;;;5.89;100.00
1832;BME280;1680;48.106;11.708;2023-03-13T00:10:55;95233.19;;;5.86;100.00
1832;BME280;1680;48.106;11.708;2023-03-13T00:13:22;95226.59;;;5.77;100.00
1832;BME280;1680;48.106;11.708;2023-03-13T00:15:58;95230.38;;;5.75;100.00
1832;BME280;1680;48.106;11.708;2023-03-13T00:18:26;95213.97;;;5.68;100.00
1832;BME280;1680;48.106;11.708;2023-03-13T00:20:57;95223.56;;;5.74;100.00
1832;BME280;1680;48.106;11.708;2023-03-13T00:23:26;95208.97;;;5.79;100.00
1832;BME280;1680;48.106;11.708;2023-03-13T00:25:57;95211.97;;;5.76;100.00
1832;BME280;1680;48.106;11.708;2023-03-13T00:28:27;95209.16;;;5.72;100.00
1832;BME280;1680;48.106;11.708;2023-03-13T00:31:03;95201.97;;;5.67;100.00
1832;BME280;1680;48.106;11.708;2023-03-13T00:33:31;95198.53;;;5.73;100.00
1832;BME280;1680;48.106;11.708;2023-03-13T00:35:59;95211.75;;;5.72;100.00
1832;BME280;1680;48.106;11.708;2023-03-13T00:38:29;95191.94;;;5.64;100.00
1832;BME280;1680;48.106;11.708;2023-03-13T00:41:00;95138.53;;;5.23;100.00
1832;BME280;1680;48.106;11.708;2023-03-13T00:43:27;95193.75;;;5.57;100.00
1832;BME280;1680;48.106;11.708;2023-03-13T00:45:55;95186.53;;;5.59;100.00
1832;BME280;1680;48.106;11.708;2023-03-13T00:48:23;95175.34;;;5.59;100.00
1832;BME280;1680;48.106;11.708;2023-03-13T00:50:51;95177.13;;;5.52;100.00
1832;BME280;1680;48.106;11.708;2023-03-13T00:53:18;95166.56;;;5.47;100.00
1832;BME280;1680;48.106;11.708;2023-03-13T00:55:55;95163.94;;;5.40;100.00
1832;BME280;1680;48.106;11.708;2023-03-13T00:58:24;95154.56;;;5.46;100.00
1832;BME280;1680;48.106;11.708;2023-03-13T01:00:52;95160.31;;;5.48;100.00
1832;BME280;1680;48.106;11.708;2023-03-13T01:03:21;95174.16;;;5.48;100.00
1832;BME280;1680;48.106;11.708;2023-03-13T01:05:55;95156.94;;;5.34;100.00
1832;BME280;1680;48.106;11.708;2023-03-13T01:08:24;95158.53;;;5.42;100.00
1832;BME280;1680;48.106;11.708;2023-03-13T01:10:58;95156.16;;;5.47;100.00
1832;BME280;1680;48.106;11.708;2023-03-13T01:13:26;95172.34;;;5.36;100.00
1832;BME280;1680;48.106;11.708;2023-03-13T01:15:53;95158.53;;;5.29;100.00
1832;BME280;1680;48.106;11.708;2023-03-13T01:18:22;95161.75;;;5.24;100.00
1832;BME280;1680;48.106;11.708;2023-03-13T01:20:50;95155.34;;;5.20;100.00
1832;BME280;1680;48.106;11.708;2023-03-13T01:23:17;95150.53;;;5.17;100.00
1832;BME280;1680;48.106;11.708;2023-03-13T01:25:44;95145.72;;;5.21;100.00
1832;BME280;1680;48.106;11.708;2023-03-13T01:28:13;95146.13;;;5.18;100.00
1832;BME280;1680;48.106;11.708;2023-03-13T01:30:40;95147.31;;;5.22;100.00
1832;BME280;1680;48.106;11.708;2023-03-13T01:33:08;95134.16;;;5.17;100.00
1832;BME280;1680;48.106;11.708;2023-03-13T01:35:35;95138.13;;;5.06;100.00
1832;BME280;1680;48.106;11.708;2023-03-13T01:38:02;95138.91;;;5.13;100.00
1832;BME280;1680;48.106;11.708;2023-03-13T01:40:30;95131.72;;;5.09;100.00
1832;BME280;1680;48.106;11.708;2023-03-13T01:42:59;95134.53;;;5.07;100.00
1832;BME280;1680;48.106;11.708;2023-03-13T01:46:08;95132.31;;;5.04;100.00
1832;BME280;1680;48.106;11.708;2023-03-13T01:48:42;95124.94;;;5.08;100.00
1832;BME280;1680;48.106;11.708;2023-03-13T01:51:12;95126.53;;;4.96;100.00
1832;BME280;1680;48.106;11.708;2023-03-13T01:53:43;95128.31;;;5.02;100.00
1832;BME280;1680;48.106;11.708;2023-03-13T01:56:16;95137.06;;;4.88;100.00
1832;BME280;1680;48.106;11.708;2023-03-13T01:58:47;95117.13;;;4.88;100.00
1832;BME280;1680;48.106;11.708;2023-03-13T02:01:17;95120.50;;;4.89;100.00
1832;BME280;1680;48.106;11.708;2023-03-13T02:03:45;95125.06;;;4.74;100.00
1832;BME280;1680;48.106;11.708;2023-03-13T02:06:15;95119.47;;;4.77;100.00
1832;BME280;1680;48.106;11.708;2023-03-13T02:08:46;95109.69;;;4.73;100.00
1832;BME280;1680;48.106;11.708;2023-03-13T02:11:22;95106.09;;;4.67;100.00
1832;BME280;1680;48.106;11.708;2023-03-13T02:13:52;95114.91;;;4.79;100.00
1832;BME280;1680;48.106;11.708;2023-03-13T02:16:22;95098.72;;;4.77;100.00
1832;BME280;1680;48.106;11.708;2023-03-13T02:18:50;95072.09;;;4.49;100.00
1832;BME280;1680;48.106;11.708;2023-03-13T02:21:24;95102.69;;;4.73;100.00
1832;BME280;1680;48.106;11.708;2023-03-13T02:23:59;95105.88;;;4.69;100.00
1832;BME280;1680;48.106;11.708;2023-03-13T02:26:29;95102.28;;;4.70;100.00
1832;BME280;1680;48.106;11.708;2023-03-13T02:28:57;95090.50;;;4.67;100.00
1832;BME280;1680;48.106;11.708;2023-03-13T02:31:24;95102.28;;;4.76;100.00
1832;BME280;1680;48.106;11.708;2023-03-13T02:33:53;95094.91;;;4.73;100.00
1832;BME280;1680;48.106;11.708;2023-03-13T02:36:21;95106.09;;;4.67;100.00
1832;BME280;1680;48.106;11.708;2023-03-13T02:38:54;95104.09;;;4.69;100.00
1832;BME280;1680;48.106;11.708;2023-03-13T02:41:23;95105.88;;;4.75;100.00
1832;BME280;1680;48.106;11.708;2023-03-13T02:43:52;95106.88;;;4.74;100.00
1832;BME280;1680;48.106;11.708;2023-03-13T02:46:20;95104.50;;;4.66;100.00
1832;BME280;1680;48.106;11.708;2023-03-13T02:48:49;95113.28;;;4.72;100.00
1832;BME280;1680;48.106;11.708;2023-03-13T02:51:19;95122.91;;;4.78;100.00
1832;BME280;1680;48.106;11.708;2023-03-13T02:53:50;95111.28;;;4.74;100.00
1832;BME280;1680;48.106;11.708;2023-03-13T02:56:20;95118.88;;;4.75;100.00
1832;BME280;1680;48.106;11.708;2023-03-13T02:58:48;95121.31;;;4.83;100.00
1832;BME280;1680;48.106;11.708;2023-03-13T03:01:17;95126.06;;;4.79;100.00
1832;BME280;1680;48.106;11.708;2023-03-13T03:03:45;95127.50;;;4.82;100.00
1832;BME280;1680;48.106;11.708;2023-03-13T03:06:13;95130.09;;;4.82;100.00
1832;BME280;1680;48.106;11.708;2023-03-13T03:08:40;95119.72;;;4.88;100.00
1832;BME280;1680;48.106;11.708;2023-03-13T03:11:09;95124.31;;;4.99;100.00
1832;BME280;1680;48.106;11.708;2023-03-13T03:13:36;95124.91;;;4.95;100.00
1832;BME280;1680;48.106;11.708;2023-03-13T03:16:08;95126.91;;;4.93;100.00
1832;BME280;1680;48.106;11.708;2023-03-13T03:18:37;95119.31;;;4.91;100.00
1832;BME280;1680;48.106;11.708;2023-03-13T03:21:05;95118.09;;;4.87;100.00
1832;BME280;1680;48.106;11.708;2023-03-13T03:23:32;95123.31;;;4.87;100.00
1832;BME280;1680;48.106;11.708;2023-03-13T03:26:00;95123.69;;;4.91;100.00
1832;BME280;1680;48.106;11.708;2023-03-13T03:28:28;95119.72;;;4.88;100.00
1832;BME280;1680;48.106;11.708;2023-03-13T03:30:55;95118.72;;;5.02;100.00
1832;BME280;1680;48.106;11.708;2023-03-13T03:33:23;95120.72;;;5.00;100.00
1832;BME280;1680;48.106;11.708;2023-03-13T03:35:58;95115.13;;;4.97;100.00
1832;BME280;1680;48.106;11.708;2023-03-13T03:38:25;95113.94;;;4.99;100.00
1832;BME280;1680;48.106;11.708;2023-03-13T03:40:53;95110.94;;;5.02;100.00
1832;BME280;1680;48.106;11.708;2023-03-13T03:43:20;95113.75;;;5.07;100.00
1832;BME280;1680;48.106;11.708;2023-03-13T03:45:48;95115.75;;;5.12;100.00
1832;BME280;1680;48.106;11.708;2023-03-13T03:48:15;95113.94;;;5.06;100.00
1832;BME280;1680;48.106;11.708;2023-03-13T03:50:42;95101.75;;;5.13;100.00
1832;BME280;1680;48.106;11.708;2023-03-13T03:53:11;95100.75;;;5.14;100.00
1832;BME280;1680;48.106;11.708;2023-03-13T03:55:38;95092.34;;;5.18;100.00
1832;BME280;1680;48.106;11.708;2023-03-13T03:58:05;95091.56;;;5.24;100.00
1832;BME280;1680;48.106;11.708;2023-03-13T04:00:33;95091.97;;;5.15;100.00
1832;BME280;1680;48.106;11.708;2023-03-13T04:03:00;95093.13;;;5.19;100.00
1832;BME280;1680;48.106;11.708;2023-03-13T04:05:27;95094.56;;;5.28;100.00
1832;BME280;1680;48.106;11.708;2023-03-13T04:07:55;95088.16;;;5.24;100.00
1832;BME280;1680;48.106;11.708;2023-03-13T04:10:24;95086.75;;;5.28;100.00
1832;BME280;1680;48.106;11.708;2023-03-13T04:12:51;95032.00;;;4.97;100.00
1832;BME280;1680;48.106;11.708;2023-03-13T04:15:18;95087.97;;;5.32;100.00
1832;BME280;1680;48.106;11.708;2023-03-13T04:17:45;95080.97;;;5.26;100.00
1832;BME280;1680;48.106;11.708;2023-03-13T04:20:13;95081.72;;;5.33;100.00
1832;BME280;1680;48.106;11.708;2023-03-13T04:22:41;95073.94;;;5.33;100.00
1832;BME280;1680;48.106;11.708;2023-03-13T04:25:09;95076.56;;;5.46;100.00
1832;BME280;1680;48.106;11.708;2023-03-13T04:27:38;95068.75;;;5.46;100.00
1832;BME280;1680;48.106;11.708;2023-03-13T04:30:06;95067.75;;;5.34;100.00
1832;BME280;1680;48.106;11.708;2023-03-13T04:32:34;95050.16;;;5.36;100.00
1832;BME280;1680;48.106;11.708;2023-03-13T04:35:01;95052.75;;;5.36;100.00
1832;BME280;1680;48.106;11.708;2023-03-13T04:37:29;95049.94;;;5.44;100.00
1832;BME280;1680;48.106;11.708;2023-03-13T04:39:56;95038.75;;;5.37;100.00
1832;BME280;1680;48.106;11.708;2023-03-13T04:42:23;95036.53;;;5.34;100.00
1832;BME280;1680;48.106;11.708;2023-03-13T04:44:52;95028.19;;;5.32;100.00
1832;BME280;1680;48.106;11.708;2023-03-13T04:47:19;95038.53;;;5.51;100.00
1832;BME280;1680;48.106;11.708;2023-03-13T04:49:47;95024.16;;;5.36;100.00
1832;BME280;1680;48.106;11.708;2023-03-13T04:52:14;95022.09;;;5.57;100.00
1832;BME280;1680;48.106;11.708;2023-03-13T04:54:41;95019.72;;;5.56;100.00
1832;BME280;1680;48.106;11.708;2023-03-13T04:57:08;95002.91;;;5.58;100.00
1832;BME280;1680;48.106;11.708;2023-03-13T04:59:35;95003.72;;;5.52;100.00
1832;BME280;1680;48.106;11.708;2023-03-13T05:02:04;95004.13;;;5.56;100.00
1832;BME280;1680;48.106;11.708;2023-03-13T05:04:31;94996.31;;;5.56;100.00
1832;BME280;1680;48.106;11.708;2023-03-13T05:06:58;94889.31;;;4.89;100.00
1832;BME280;1680;48.106;11.708;2023-03-13T05:09:26;94995.06;;;5.65;100.00
1832;BME280;1680;48.106;11.708;2023-03-13T05:11:53;94987.28;;;5.65;100.00
1832;BME280;1680;48.106;11.708;2023-03-13T05:14:20;94992.25;;;5.72;100.00
1832;BME280;1680;48.106;11.708;2023-03-13T05:16:47;95002.84;;;5.71;100.00
1832;BME280;1680;48.106;11.708;2023-03-13T05:19:16;94994.47;;;5.75;100.00
1832;BME280;1680;48.106;11.708;2023-03-13T05:21:43;94987.66;;;5.74;100.00
1832;BME280;1680;48.106;11.708;2023-03-13T05:24:11;94987.44;;;5.82;100.00
1832;BME280;1680;48.106;11.708;2023-03-13T05:26:38;94984.81;;;5.89;100.00
1832;BME280;1680;48.106;11.708;2023-03-13T05:29:05;94981.16;;;5.96;100.00
1832;BME280;1680;48.106;11.708;2023-03-13T05:31:32;94974.78;;;5.92;100.00
1832;BME280;1680;48.106;11.708;2023-03-13T05:34:00;94975.19;;;5.96;100.00
1832;BME280;1680;48.106;11.708;2023-03-13T05:36:28;94965.00;;;5.88;100.00
1832;BME280;1680;48.106;11.708;2023-03-13T05:38:55;94965.16;;;5.99;100.00
1832;BME280;1680;48.106;11.708;2023-03-13T05:41:22;94964.81;;;5.89;100.00
1832;BME280;1680;48.106;11.708;2023-03-13T05:43:50;94954.56;;;5.94;100.00
1832;BME280;1680;48.106;11.708;2023-03-13T05:46:17;94950.06;;;6.14;100.00
1832;BME280;1680;48.106;11.708;2023-03-13T05:48:44;94953.91;;;6.05;100.00
1832;BME280;1680;48.106;11.708;2023-03-13T05:51:11;94952.88;;;6.13;100.00
1832;BME280;1680;48.106;11.708;2023-03-13T05:53:40;94951.44;;;6.17;100.00
1832;BME280;1680;48.106;11.708;2023-03-13T05:56:07;94951.97;;;6.25;100.00
1832;BME280;1680;48.106;11.708;2023-03-13T05:58:34;94954.16;;;6.28;100.00
1832;BME280;1680;48.106;11.708;2023-03-13T06:01:05;94953.34;;;6.34;100.00
1832;BME280;1680;48.106;11.708;2023-03-13T06:03:33;94951.69;;;6.40;100.00
1832;BME280;1680;48.106;11.708;2023-03-13T06:06:00;94950.88;;;6.39;100.00
1832;BME280;1680;48.106;11.708;2023-03-13T06:08:28;94951.66;;;6.46;100.00
1832;BME280;1680;48.106;11.708;2023-03-13T06:10:59;94950.78;;;6.52;100.00
1832;BME280;1680;48.106;11.708;2023-03-13T06:13:27;94921.81;;;6.42;100.00
1832;BME280;1680;48.106;11.708;2023-03-13T06:15:55;94928.53;;;6.56;100.00
1832;BME280;1680;48.106;11.708;2023-03-13T06:18:23;94915.50;;;6.56;100.00
1832;BME280;1680;48.106;11.708;2023-03-13T06:20:55;94928.28;;;6.64;100.00
1832;BME280;1680;48.106;11.708;2023-03-13T06:23:23;94914.25;;;6.65;100.00
1832;BME280;1680;48.106;11.708;2023-03-13T06:25:50;94920.78;;;6.74;100.00
1832;BME280;1680;48.106;11.708;2023-03-13T06:28:19;94919.75;;;6.75;100.00
1832;BME280;1680;48.106;11.708;2023-03-13T06:30:47;94924.56;;;6.78;100.00
1832;BME280;1680;48.106;11.708;2023-03-13T06:33:14;94921.72;;;6.79;100.00
1832;BME280;1680;48.106;11.708;2023-03-13T06:35:42;94924.06;;;6.87;100.00
1832;BME280;1680;48.106;11.708;2023-03-13T06:38:09;94910.38;;;6.92;100.00
1832;BME280;1680;48.106;11.708;2023-03-13T06:40:37;94912.13;;;6.98;100.00
1832;BME280;1680;48.106;11.708;2023-03-13T06:43:04;94912.34;;;6.96;100.00
1832;BME280;1680;48.106;11.708;2023-03-13T06:45:34;94911.69;;;7.01;100.00
1832;BME280;1680;48.106;11.708;2023-03-13T06:48:01;94921.84;;;7.09;99.93
1832;BME280;1680;48.106;11.708;2023-03-13T06:50:29;94904.75;;;7.13;98.43
1832;BME280;1680;48.106;11.708;2023-03-13T06:52:56;94908.53;;;7.17;98.64
1832;BME280;1680;48.106;11.708;2023-03-13T06:55:23;94906.06;;;7.22;98.92
1832;BME280;1680;48.106;11.708;2023-03-13T06:57:50;94909.53;;;7.34;97.48
1832;BME280;1680;48.106;11.708;2023-03-13T07:00:19;94916.34;;;7.35;97.40
1832;BME280;1680;48.106;11.708;2023-03-13T07:02:47;94917.06;;;7.42;97.22
1832;BME280;1680;48.106;11.708;2023-03-13T07:05:15;94909.41;;;7.47;97.02
1832;BME280;1680;48.106;11.708;2023-03-13T07:07:42;94903.75;;;7.50;97.79
1832;BME280;1680;48.106;11.708;2023-03-13T07:10:10;94906.63;;;7.42;97.62
1832;BME280;1680;48.106;11.708;2023-03-13T07:12:38;94914.34;;;7.37;98.02
1832;BME280;1680;48.106;11.708;2023-03-13T07:15:06;94908.63;;;7.46;97.35
1832;BME280;1680;48.106;11.708;2023-03-13T07:17:34;94898.97;;;7.47;97.45
1832;BME280;1680;48.106;11.708;2023-03-13T07:20:04;94907.44;;;7.60;96.16
1832;BME280;1680;48.106;11.708;2023-03-13T07:22:34;94897.66;;;7.56;95.66
1832;BME280;1680;48.106;11.708;2023-03-13T07:25:03;94904.03;;;7.60;96.32
1832;BME280;1680;48.106;11.708;2023-03-13T07:27:30;94911.69;;;7.72;94.96
1832;BME280;1680;48.106;11.708;2023-03-13T07:29:58;94907.50;;;7.71;95.08
1832;BME280;1680;48.106;11.708;2023-03-13T07:32:30;94909.53;;;7.69;96.10
1832;BME280;1680;48.106;11.708;2023-03-13T07:34:58;94902.56;;;7.81;95.42
1832;BME280;1680;48.106;11.708;2023-03-13T07:37:29;94913.91;;;7.87;95.22
1832;BME280;1680;48.106;11.708;2023-03-13T07:39:56;94908.47;;;7.88;95.33
1832;BME280;1680;48.106;11.708;2023-03-13T07:42:24;94904.41;;;7.92;94.75
1832;BME280;1680;48.106;11.708;2023-03-13T07:44:52;94903.97;;;7.95;94.49
1832;BME280;1680;48.106;11.708;2023-03-13T07:47:19;94899.81;;;8.06;92.91
1832;BME280;1680;48.106;11.708;2023-03-13T07:49:46;94887.44;;;8.13;93.00
1832;BME280;1680;48.106;11.708;2023-03-13T07:52:13;94891.41;;;8.04;93.90
1832;BME280;1680;48.106;11.708;2023-03-13T07:54:43;94897.25;;;8.17;95.08
1832;BME280;1680;48.106;11.708;2023-03-13T07:57:10;94896.81;;;8.20;95.05
1832;BME280;1680;48.106;11.708;2023-03-13T07:59:37;94886.03;;;8.17;96.50
1832;BME280;1680;48.106;11.708;2023-03-13T08:02:05;94891.50;;;8.27;97.31
1832;BME280;1680;48.106;11.708;2023-03-13T08:04:32;94895.25;;;8.31;97.41
1832;BME280;1680;48.106;11.708;2023-03-13T08:06:59;94898.38;;;8.51;96.24
1832;BME280;1680;48.106;11.708;2023-03-13T08:09:26;94909.75;;;8.68;95.16
1832;BME280;1680;48.106;11.708;2023-03-13T08:11:55;94910.09;;;8.71;95.70
1832;BME280;1680;48.106;11.708;2023-03-13T08:14:22;94900.47;;;8.94;94.31
1832;BME280;1680;48.106;11.708;2023-03-13T08:16:49;94891.81;;;9.05;94.34
1832;BME280;1680;48.106;11.708;2023-03-13T08:19:17;94891.91;;;9.22;93.00
1832;BME280;1680;48.106;11.708;2023-03-13T08:21:44;94888.56;;;9.49;91.10
1832;BME280;1680;48.106;11.708;2023-03-13T08:24:11;94880.31;;;9.68;87.32
1832;BME280;1680;48.106;11.708;2023-03-13T08:26:40;94872.59;;;9.90;86.23
1832;BME280;1680;48.106;11.708;2023-03-13T08:29:11;94870.66;;;9.97;85.93
1832;BME280;1680;48.106;11.708;2023-03-13T08:31:42;94873.75;;;10.22;82.07
1832;BME280;1680;48.106;11.708;2023-03-13T08:34:11;94864.41;;;10.26;82.14
1832;BME280;1680;48.106;11.708;2023-03-13T08:36:38;94874.34;;;10.40;81.13
1832;BME280;1680;48.106;11.708;2023-03-13T08:39:08;94879.44;;;10.63;81.22
1832;BME280;1680;48.106;11.708;2023-03-13T08:41:37;94886.50;;;10.79;80.53
1832;BME280;1680;48.106;11.708;2023-03-13T08:44:05;94903.19;;;10.73;81.92
1832;BME280;1680;48.106;11.708;2023-03-13T08:46:35;94892.06;;;10.66;84.58
1832;BME280;1680;48.106;11.708;2023-03-13T08:49:03;94899.22;;;10.54;87.26
1832;BME280;1680;48.106;11.708;2023-03-13T08:51:31;94889.06;;;10.41;90.77
1832;BME280;1680;48.106;11.708;2023-03-13T08:54:00;94907.97;;;10.60;91.66
1832;BME280;1680;48.106;11.708;2023-03-13T08:56:28;94886.44;;;10.58;93.70
1832;BME280;1680;48.106;11.708;2023-03-13T08:58:57;94884.44;;;10.64;95.49
1832;BME280;1680;48.106;11.708;2023-03-13T09:01:27;94886.66;;;10.89;94.23
1832;BME280;1680;48.106;11.708;2023-03-13T09:03:56;94889.38;;;10.94;93.74
1832;BME280;1680;48.106;11.708;2023-03-13T09:06:24;94885.13;;;11.09;91.59
1832;BME280;1680;48.106;11.708;2023-03-13T09:08:51;94892.69;;;11.22;88.38
1832;BME280;1680;48.106;11.708;2023-03-13T09:11:20;94885.50;;;11.34;88.68
1832;BME280;1680;48.106;11.708;2023-03-13T09:13:49;94881.66;;;11.42;87.72
1832;BME280;1680;48.106;11.708;2023-03-13T09:16:17;94883.28;;;11.64;84.66
1832;BME280;1680;48.106;11.708;2023-03-13T09:18:45;94872.72;;;11.80;82.72
1832;BME280;1680;48.106;11.708;2023-03-13T09:21:19;94866.25;;;12.14;78.69
1832;BME280;1680;48.106;11.708;2023-03-13T09:23:47;94864.75;;;12.50;77.36
1832;BME280;1680;48.106;11.708;2023-03-13T09:26:14;94877.69;;;12.56;78.15
1832;BME280;1680;48.106;11.708;2023-03-13T09:28:42;94870.50;;;12.47;76.46
1832;BME280;1680;48.106;11.708;2023-03-13T09:31:11;94865.03;;;12.53;73.10
1832;BME280;1680;48.106;11.708;2023-03-13T09:33:39;94845.72;;;12.38;70.49
1832;BME280;1680;48.106;11.708;2023-03-13T09:36:08;94860.78;;;12.47;69.03
1832;BME280;1680;48.106;11.708;2023-03-13T09:38:37;94858.03;;;12.32;69.94
1832;BME280;1680;48.106;11.708;2023-03-13T09:41:18;94850.75;;;12.44;70.67
1832;BME280;1680;48.106;11.708;2023-03-13T09:43:49;94858.97;;;12.79;69.14
1832;BME280;1680;48.106;11.708;2023-03-13T09:46:22;94846.91;;;12.88;67.00
1832;BME280;1680;48.106;11.708;2023-03-13T09:48:54;94840.84;;;13.24;66.46
1832;BME280;1680;48.106;11.708;2023-03-13T09:54:49;94820.34;;;13.31;66.15
1832;BME280;1680;48.106;11.708;2023-03-13T09:57:23;94824.88;;;13.40;64.80
1832;BME280;1680;48.106;11.708;2023-03-13T09:59:54;94839.97;;;13.59;64.40
1832;BME280;1680;48.106;11.708;2023-03-13T10:02:29;94834.25;;;13.87;62.03
1832;BME280;1680;48.106;11.708;2023-03-13T10:05:13;94829.59;;;14.09;58.96
1832;BME280;1680;48.106;11.708;2023-03-13T10:07:42;94831.78;;;14.37;61.32
1832;BME280;1680;48.106;11.708;2023-03-13T10:10:14;94823.88;;;14.72;61.08
1832;BME280;1680;48.106;11.708;2023-03-13T10:12:45;94821.22;;;14.82;56.28
1832;BME280;1680;48.106;11.708;2023-03-13T10:15:23;94813.28;;;14.97;57.92
1832;BME280;1680;48.106;11.708;2023-03-13T10:17:54;94814.84;;;15.08;55.15
1832;BME280;1680;48.106;11.708;2023-03-13T10:20:23;94806.41;;;15.11;57.11
1832;BME280;1680;48.106;11.708;2023-03-13T10:22:55;94793.19;;;15.26;57.02
1832;BME280;1680;48.106;11.708;2023-03-13T10:25:29;94803.72;;;15.46;56.73
1832;BME280;1680;48.106;11.708;2023-03-13T10:27:58;94805.19;;;15.66;54.55
1832;BME280;1680;48.106;11.708;2023-03-13T10:30:28;94791.91;;;15.81;53.71
1832;BME280;1680;48.106;11.708;2023-03-13T10:32:59;94796.66;;;15.84;52.86
1832;BME280;1680;48.106;11.708;2023-03-13T10:35:32;94805.16;;;15.76;53.87
1832;BME280;1680;48.106;11.708;2023-03-13T10:38:04;94805.44;;;15.75;53.60
1832;BME280;1680;48.106;11.708;2023-03-13T10:40:33;94801.47;;;15.77;54.65
1832;BME280;1680;48.106;11.708;2023-03-13T10:43:03;94800.47;;;16.17;53.61
1832;BME280;1680;48.106;11.708;2023-03-13T10:45:33;94789.81;;;16.22;54.39
1832;BME280;1680;48.106;11.708;2023-03-13T10:48:09;94783.16;;;16.39;53.86
1832;BME280;1680;48.106;11.708;2023-03-13T10:50:41;94782.66;;;16.32;52.85
1832;BME280;1680;48.106;11.708;2023-03-13T10:53:25;94779.22;;;16.27;53.99
1832;BME280;1680;48.106;11.708;2023-03-13T10:56:03;94778.56;;;16.06;55.69
1832;BME280;1680;48.106;11.708;2023-03-13T10:58:39;94773.50;;;16.15;53.09
1832;BME280;1680;48.106;11.708;2023-03-13T11:01:13;94771.53;;;16.35;54.10
1832;BME280;1680;48.106;11.708;2023-03-13T11:03:42;94767.72;;;16.46;53.12
1832;BME280;1680;48.106;11.708;2023-03-13T11:06:23;94759.09;;;16.64;52.66
1832;BME280;1680;48.106;11.708;2023-03-13T11:08:58;94751.03;;;16.79;52.02
1832;BME280;1680;48.106;11.708;2023-03-13T11:11:26;94750.81;;;16.75;52.62
1832;BME280;1680;48.106;11.708;2023-03-13T11:14:07;94742.97;;;16.89;52.53
1832;BME280;1680;48.106;11.708;2023-03-13T11:16:39;94750.78;;;17.04;51.77
1832;BME280;1680;48.106;11.708;2023-03-13T11:19:35;94741.38;;;17.16;50.52
1832;BME280;1680;48.106;11.708;2023-03-13T11:22:27;94739.13;;;17.28;49.66
1832;BME280;1680;48.106;11.708;2023-03-13T11:25:03;94743.53;;;17.38;49.90
1832;BME280;1680;48.106;11.708;2023-03-13T11:27:41;94748.16;;;17.51;49.21
1832;BME280;1680;48.106;11.708;2023-03-13T11:30:18;94733.63;;;17.48;50.38
1832;BME280;1680;48.106;11.708;2023-03-13T11:32:51;94738.91;;;17.48;49.58
1832;BME280;1680;48.106;11.708;2023-03-13T11:35:34;94731.56;;;17.40;50.47
1832;BME280;1680;48.106;11.708;2023-03-13T11:38:07;94730.00;;;17.39;48.68
1832;BME280;1680;48.106;11.708;2023-03-13T11:40:45;94728.91;;;17.63;49.18
1832;BME280;1680;48.106;11.708;2023-03-13T11:43:28;94721.03;;;17.58;50.31
1832;BME280;1680;48.106;11.708;2023-03-13T11:46:28;94711.41;;;17.62;50.92
1832;BME280;1680;48.106;11.708;2023-03-13T11:49:30;94715.16;;;17.80;49.81
1832;BME280;1680;48.106;11.708;2023-03-13T11:52:11;94669.94;;;17.71;50.76
1832;BME280;1680;48.106;11.708;2023-03-13T11:54:55;94690.44;;;17.84;50.16
1832;BME280;1680;48.106;11.708;2023-03-13T11:57:27;94701.38;;;17.96;51.84
1832;BME280;1680;48.106;11.708;2023-03-13T12:00:15;94662.44;;;18.10;50.74
1832;BME280;1680;48.106;11.708;2023-03-13T12:02:48;94682.56;;;18.30;50.75
1832;BME280;1680;48.106;11.708;2023-03-13T12:05:18;94679.47;;;18.41;50.30
1832;BME280;1680;48.106;11.708;2023-03-13T12:07:49;94660.09;;;18.22;50.90
1832;BME280;1680;48.106;11.708;2023-03-13T12:10:21;94634.59;;;18.26;51.86
1832;BME280;1680;48.106;11.708;2023-03-13T12:12:58;94659.59;;;18.70;51.09
1832;BME280;1680;48.106;11.708;2023-03-13T12:15:30;94666.88;;;18.92;51.51
1832;BME280;1680;48.106;11.708;2023-03-13T12:18:02;94614.97;;;18.54;53.31
1832;BME280;1680;48.106;11.708;2023-03-13T12:20:35;94641.53;;;18.54;54.01
1832;BME280;1680;48.106;11.708;2023-03-13T12:23:15;94650.22;;;18.73;54.42
1832;BME280;1680;48.106;11.708;2023-03-13T12:25:46;94641.38;;;18.77;54.50
1832;BME280;1680;48.106;11.708;2023-03-13T12:28:25;94644.53;;;18.79;54.60
1832;BME280;1680;48.106;11.708;2023-03-13T12:31:12;94635.66;;;18.84;54.94
1832;BME280;1680;48.106;11.708;2023-03-13T12:33:47;94634.50;;;18.63;54.56
1832;BME280;1680;48.106;11.708;2023-03-13T12:36:21;94641.16;;;18.60;55.17
1832;BME280;1680;48.106;11.708;2023-03-13T12:38:55;94630.44;;;18.65;55.12
1832;BME280;1680;48.106;11.708;2023-03-13T12:41:27;94623.47;;;18.69;55.09
1832;BME280;1680;48.106;11.708;2023-03-13T12:43:56;94621.09;;;18.68;55.56
1832;BME280;1680;48.106;11.708;2023-03-13T12:46:38;94619.53;;;18.67;54.18
1832;BME280;1680;48.106;11.708;2023-03-13T12:49:51;94607.84;;;18.81;54.33
1832;BME280;1680;48.106;11.708;2023-03-13T12:52:44;94604.38;;;18.81;53.83
1832;BME280;1680;48.106;11.708;2023-03-13T12:58:38;94601.03;;;18.89;54.05
1832;BME280;1680;48.106;11.708;2023-03-13T13:01:12;94583.13;;;19.08;54.34
1832;BME280;1680;48.106;11.708;2023-03-13T13:03:50;94585.69;;;18.99;53.34
1832;BME280;1680;48.106;11.708;2023-03-13T13:06:18;94570.34;;;18.83;53.79
1832;BME280;1680;48.106;11.708;2023-03-13T13:08:47;94563.34;;;18.87;54.00
1832;BME280;1680;48.106;11.708;2023-03-13T13:14:55;94566.78;;;19.01;53.38
1832;BME280;1680;48.106;11.708;2023-03-13T13:17:37;94556.94;;;19.01;53.17
1832;BME280;1680;48.106;11.708;2023-03-13T13:20:41;94557.44;;;19.17;52.53
1832;BME280;1680;48.106;11.708;2023-03-13T13:23:30;94560.91;;;19.52;52.95
1832;BME280;1680;48.106;11.708;2023-03-13T13:32:42;94551.75;;;19.45;51.92
1832;BME280;1680;48.106;11.708;2023-03-13T13:35:27;94538.56;;;19.40;52.41
1832;BME280;1680;48.106;11.708;2023-03-13T13:38:28;94541.66;;;19.55;52.66
1832;BME280;1680;48.106;11.708;2023-03-13T13:41:03;94543.47;;;19.47;52.51
1832;BME280;1680;48.106;11.708;2023-03-13T13:43:32;94546.97;;;19.55;52.23
1832;BME280;1680;48.106;11.708;2023-03-13T13:46:02;94535.13;;;19.61;52.06
1832;BME280;1680;48.106;11.708;2023-03-13T13:48:34;94528.25;;;19.60;51.67